Terminal Aerodrome Forecast
Issued by NWS Atlanta, GA

Home | Current Version | Previous Version | Text Only | Print | Product List | Glossary On
Versions: 1 2 3 4 5 6 7 8 9 10 11 12 13 14 15 16 17 18 19 20 21 22 23 24 25 26 27 28
000
FTUS42 KFFC 110529
TAFAHN
TAF
KAHN 110529Z 1106/1206 09003KT P6SM FEW250
     FM111200 09004KT P6SM SCT025
     FM111500 08005KT P6SM BKN025
     FM112000 08006KT P6SM BKN015
     FM120000 09005KT P6SM VCSH BKN007
     FM120500 09004KT 3SM -RADZ BR OVC005=

USA.gov is the U.S. government's official web portal to all federal, state and local government web resources and services.